sensor_id;sensor_type;location;lat;lon;timestamp;pressure;altitude;pressure_sealevel;temperature;humidity
69200;BME280;56313;49.804;9.952;2022-11-25T02:24:45;99226.91;;;0.88;93.91
69200;BME280;56313;49.804;9.952;2022-11-25T02:27:16;99238.47;;;0.81;94.15
69200;BME280;56313;49.804;9.952;2022-11-25T02:29:42;99237.41;;;0.69;93.76
69200;BME280;56313;49.804;9.952;2022-11-25T02:32:08;99236.94;;;0.62;94.99
69200;BME280;56313;49.804;9.952;2022-11-25T02:34:34;99236.59;;;0.68;94.47
69200;BME280;56313;49.804;9.952;2022-11-25T02:36:59;99239.91;;;0.70;94.03
69200;BME280;56313;49.804;9.952;2022-11-25T02:39:26;99245.31;;;0.66;94.09
69200;BME280;56313;49.804;9.952;2022-11-25T02:41:56;99247.25;;;0.62;93.89
69200;BME280;56313;49.804;9.952;2022-11-25T02:44:25;99244.66;;;0.62;93.65
69200;BME280;56313;49.804;9.952;2022-11-25T02:46:57;99250.72;;;0.61;94.10
69200;BME280;56313;49.804;9.952;2022-11-25T02:49:23;99246.06;;;0.52;94.14
69200;BME280;56313;49.804;9.952;2022-11-25T02:51:48;99233.59;;;0.60;93.94
69200;BME280;56313;49.804;9.952;2022-11-25T02:54:14;99239.97;;;0.69;94.11
69200;BME280;56313;49.804;9.952;2022-11-25T02:56:46;99235.66;;;0.69;93.86
69200;BME280;56313;49.804;9.952;2022-11-25T02:59:17;99235.69;;;0.37;94.96
69200;BME280;56313;49.804;9.952;2022-11-25T03:01:52;99238.41;;;0.34;94.44
69200;BME280;56313;49.804;9.952;2022-11-25T03:04:20;99240.25;;;0.48;94.50
69200;BME280;56313;49.804;9.952;2022-11-25T03:06:46;99244.16;;;0.55;95.01
69200;BME280;56313;49.804;9.952;2022-11-25T03:09:17;99246.31;;;0.47;94.95
69200;BME280;56313;49.804;9.952;2022-11-25T03:11:58;99242.22;;;0.75;94.66
69200;BME280;56313;49.804;9.952;2022-11-25T03:14:42;99238.63;;;0.94;94.15
69200;BME280;56313;49.804;9.952;2022-11-25T03:17:10;99234.03;;;0.99;93.53
69200;BME280;56313;49.804;9.952;2022-11-25T03:19:38;99236.16;;;0.76;94.15
69200;BME280;56313;49.804;9.952;2022-11-25T03:22:04;99233.72;;;0.73;93.76
69200;BME280;56313;49.804;9.952;2022-11-25T03:24:34;99223.88;;;0.65;94.15
69200;BME280;56313;49.804;9.952;2022-11-25T03:27:02;99229.75;;;0.67;93.98
69200;BME280;56313;49.804;9.952;2022-11-25T03:29:32;99222.03;;;0.67;93.99
69200;BME280;56313;49.804;9.952;2022-11-25T03:32:14;99227.63;;;0.59;93.85
69200;BME280;56313;49.804;9.952;2022-11-25T03:34:44;99225.84;;;0.76;93.79
69200;BME280;56313;49.804;9.952;2022-11-25T03:37:13;99219.00;;;0.91;93.33
69200;BME280;56313;49.804;9.952;2022-11-25T03:39:38;99214.47;;;0.80;93.16
69200;BME280;56313;49.804;9.952;2022-11-25T03:42:10;99218.47;;;0.70;93.12
69200;BME280;56313;49.804;9.952;2022-11-25T03:44:36;99222.88;;;0.52;93.55
69200;BME280;56313;49.804;9.952;2022-11-25T03:47:02;99220.88;;;0.41;93.46
69200;BME280;56313;49.804;9.952;2022-11-25T03:49:27;99230.34;;;0.24;93.92
69200;BME280;56313;49.804;9.952;2022-11-25T03:51:55;99221.63;;;0.43;93.74
69200;BME280;56313;49.804;9.952;2022-11-25T03:54:26;99214.13;;;0.54;93.65
69200;BME280;56313;49.804;9.952;2022-11-25T03:56:54;99210.06;;;0.50;93.46
69200;BME280;56313;49.804;9.952;2022-11-25T03:59:22;99200.00;;;0.45;93.18
69200;BME280;56313;49.804;9.952;2022-11-25T04:01:48;99212.66;;;0.34;93.25
69200;BME280;56313;49.804;9.952;2022-11-25T04:04:16;99212.81;;;0.31;94.20
69200;BME280;56313;49.804;9.952;2022-11-25T04:06:42;99207.97;;;0.41;93.63
69200;BME280;56313;49.804;9.952;2022-11-25T04:09:08;99217.28;;;0.43;93.24
69200;BME280;56313;49.804;9.952;2022-11-25T04:11:36;99230.44;;;0.39;93.22
69200;BME280;56313;49.804;9.952;2022-11-25T04:14:24;99231.00;;;0.44;93.00
69200;BME280;56313;49.804;9.952;2022-11-25T04:16:49;99229.38;;;0.43;93.56
69200;BME280;56313;49.804;9.952;2022-11-25T04:19:15;99239.66;;;0.43;93.40
69200;BME280;56313;49.804;9.952;2022-11-25T04:21:40;99231.00;;;0.44;93.59
69200;BME280;56313;49.804;9.952;2022-11-25T04:24:09;99239.00;;;0.39;93.57
69200;BME280;56313;49.804;9.952;2022-11-25T04:26:35;99240.84;;;0.37;94.12
69200;BME280;56313;49.804;9.952;2022-11-25T04:29:00;99232.19;;;0.38;93.95
69200;BME280;56313;49.804;9.952;2022-11-25T04:31:31;99244.66;;;0.46;94.39
69200;BME280;56313;49.804;9.952;2022-11-25T04:33:57;99228.44;;;0.28;95.23
69200;BME280;56313;49.804;9.952;2022-11-25T04:36:23;99242.50;;;0.38;95.49
69200;BME280;56313;49.804;9.952;2022-11-25T04:38:49;99239.00;;;0.39;94.50
69200;BME280;56313;49.804;9.952;2022-11-25T04:41:17;99234.91;;;0.35;95.05
69200;BME280;56313;49.804;9.952;2022-11-25T04:43:42;99229.91;;;0.16;95.14
69200;BME280;56313;49.804;9.952;2022-11-25T04:46:12;99218.84;;;0.14;95.29
69200;BME280;56313;49.804;9.952;2022-11-25T04:48:38;99223.69;;;0.20;95.54
69200;BME280;56313;49.804;9.952;2022-11-25T04:51:04;99222.97;;;0.34;95.56
69200;BME280;56313;49.804;9.952;2022-11-25T04:53:29;99217.88;;;0.32;95.20
69200;BME280;56313;49.804;9.952;2022-11-25T04:55:55;99205.66;;;0.68;94.79
69200;BME280;56313;49.804;9.952;2022-11-25T04:58:20;99214.38;;;0.66;93.68
69200;BME280;56313;49.804;9.952;2022-11-25T05:01:06;99219.63;;;0.48;93.82
69200;BME280;56313;49.804;9.952;2022-11-25T05:03:31;99219.97;;;0.58;94.18
69200;BME280;56313;49.804;9.952;2022-11-25T05:05:57;99224.50;;;0.69;94.36
69200;BME280;56313;49.804;9.952;2022-11-25T05:08:22;99228.59;;;0.57;93.38
69200;BME280;56313;49.804;9.952;2022-11-25T05:10:48;99220.88;;;0.41;92.90
69200;BME280;56313;49.804;9.952;2022-11-25T05:13:16;99226.03;;;0.24;93.36
69200;BME280;56313;49.804;9.952;2022-11-25T05:15:42;99224.13;;;0.28;93.80
69200;BME280;56313;49.804;9.952;2022-11-25T05:18:08;99234.34;;;0.46;93.79
69200;BME280;56313;49.804;9.952;2022-11-25T05:20:36;99231.94;;;0.43;93.75
69200;BME280;56313;49.804;9.952;2022-11-25T05:23:01;99231.66;;;0.31;93.90
69200;BME280;56313;49.804;9.952;2022-11-25T05:25:27;99234.00;;;0.20;95.04
69200;BME280;56313;49.804;9.952;2022-11-25T05:27:52;99236.50;;;0.37;94.36
69200;BME280;56313;49.804;9.952;2022-11-25T05:30:18;99233.00;;;0.22;95.32
69200;BME280;56313;49.804;9.952;2022-11-25T05:32:44;99227.41;;;0.14;95.79
69200;BME280;56313;49.804;9.952;2022-11-25T05:35:09;99230.00;;;0.14;95.69
69200;BME280;56313;49.804;9.952;2022-11-25T05:37:34;99228.16;;;0.00;95.92
69200;BME280;56313;49.804;9.952;2022-11-25T05:40:00;99226.09;;;0.07;96.33
69200;BME280;56313;49.804;9.952;2022-11-25T05:42:28;99229.53;;;0.23;95.99
69200;BME280;56313;49.804;9.952;2022-11-25T05:44:53;99227.59;;;0.27;96.40
69200;BME280;56313;49.804;9.952;2022-11-25T05:47:19;99232.09;;;0.23;95.52
69200;BME280;56313;49.804;9.952;2022-11-25T05:49:44;99230.84;;;0.31;95.46
69200;BME280;56313;49.804;9.952;2022-11-25T05:52:09;99230.78;;;0.32;95.47
69200;BME280;56313;49.804;9.952;2022-11-25T05:54:35;99238.50;;;0.32;94.94
69200;BME280;56313;49.804;9.952;2022-11-25T05:57:00;99246.16;;;0.34;95.09
69200;BME280;56313;49.804;9.952;2022-11-25T05:59:26;99244.91;;;0.25;95.50
69200;BME280;56313;49.804;9.952;2022-11-25T06:01:52;99244.50;;;0.49;94.81
69200;BME280;56313;49.804;9.952;2022-11-25T06:04:18;99240.06;;;0.51;94.62
69200;BME280;56313;49.804;9.952;2022-11-25T06:06:43;99239.22;;;0.50;94.07
69200;BME280;56313;49.804;9.952;2022-11-25T06:09:08;99237.59;;;0.49;94.26
69200;BME280;56313;49.804;9.952;2022-11-25T06:11:34;99235.59;;;0.55;93.80
69200;BME280;56313;49.804;9.952;2022-11-25T06:13:59;99228.34;;;0.45;93.46
69200;BME280;56313;49.804;9.952;2022-11-25T06:16:25;99232.25;;;0.36;93.42
69200;BME280;56313;49.804;9.952;2022-11-25T06:18:50;99224.69;;;0.49;93.79
69200;BME280;56313;49.804;9.952;2022-11-25T06:21:19;99226.78;;;0.59;94.03
69200;BME280;56313;49.804;9.952;2022-11-25T06:23:45;99231.69;;;0.47;93.83
69200;BME280;56313;49.804;9.952;2022-11-25T06:26:19;99227.34;;;0.64;93.69
69200;BME280;56313;49.804;9.952;2022-11-25T06:28:45;99233.09;;;0.53;93.39
69200;BME280;56313;49.804;9.952;2022-11-25T06:31:16;99232.09;;;0.56;93.15
69200;BME280;56313;49.804;9.952;2022-11-25T06:33:45;99231.34;;;0.54;92.84
69200;BME280;56313;49.804;9.952;2022-11-25T06:36:11;99231.34;;;0.37;93.03
69200;BME280;56313;49.804;9.952;2022-11-25T06:38:42;99243.81;;;0.45;92.98
69200;BME280;56313;49.804;9.952;2022-11-25T06:41:08;99242.50;;;0.38;92.84
69200;BME280;56313;49.804;9.952;2022-11-25T06:43:33;99240.81;;;0.21;93.05
69200;BME280;56313;49.804;9.952;2022-11-25T06:46:06;99249.31;;;0.39;93.07
69200;BME280;56313;49.804;9.952;2022-11-25T06:48:32;99253.44;;;0.25;93.11
69200;BME280;56313;49.804;9.952;2022-11-25T06:50:59;99260.69;;;0.19;92.85
69200;BME280;56313;49.804;9.952;2022-11-25T06:53:26;99263.75;;;0.25;93.21
69200;BME280;56313;49.804;9.952;2022-11-25T06:56:25;99278.16;;;0.30;93.87
69200;BME280;56313;49.804;9.952;2022-11-25T06:58:51;99283.63;;;0.23;93.40
69200;BME280;56313;49.804;9.952;2022-11-25T07:01:19;99284.94;;;0.15;94.74
69200;BME280;56313;49.804;9.952;2022-11-25T07:03:46;99281.75;;;0.09;94.86
69200;BME280;56313;49.804;9.952;2022-11-25T07:06:13;99287.38;;;0.18;95.72
69200;BME280;56313;49.804;9.952;2022-11-25T07:08:39;99289.25;;;0.14;95.83
69200;BME280;56313;49.804;9.952;2022-11-25T07:11:07;99295.22;;;0.48;95.37
69200;BME280;56313;49.804;9.952;2022-11-25T07:13:34;99302.31;;;0.27;95.93
69200;BME280;56313;49.804;9.952;2022-11-25T07:16:04;99302.00;;;0.33;96.68
69200;BME280;56313;49.804;9.952;2022-11-25T07:18:34;99293.25;;;0.20;96.21
69200;BME280;56313;49.804;9.952;2022-11-25T07:21:05;99302.63;;;0.21;97.09
69200;BME280;56313;49.804;9.952;2022-11-25T07:23:35;99301.81;;;0.20;96.88
69200;BME280;56313;49.804;9.952;2022-11-25T07:26:06;99307.06;;;0.19;97.13
69200;BME280;56313;49.804;9.952;2022-11-25T07:28:32;99307.28;;;0.14;96.94
69200;BME280;56313;49.804;9.952;2022-11-25T07:31:15;99309.31;;;0.25;97.51
69200;BME280;56313;49.804;9.952;2022-11-25T07:33:42;99316.69;;;0.31;97.23
69200;BME280;56313;49.804;9.952;2022-11-25T07:36:10;99312.72;;;0.25;97.51
69200;BME280;56313;49.804;9.952;2022-11-25T07:38:36;99318.16;;;0.37;97.51
69200;BME280;56313;49.804;9.952;2022-11-25T07:41:13;99320.88;;;0.34;97.40
69200;BME280;56313;49.804;9.952;2022-11-25T07:43:39;99323.22;;;0.39;97.25
69200;BME280;56313;49.804;9.952;2022-11-25T07:46:14;99326.47;;;0.42;97.37
69200;BME280;56313;49.804;9.952;2022-11-25T07:48:40;99338.09;;;0.33;97.22
69200;BME280;56313;49.804;9.952;2022-11-25T07:51:17;99334.19;;;0.42;97.17
69200;BME280;56313;49.804;9.952;2022-11-25T07:53:44;99340.75;;;0.48;97.23
69200;BME280;56313;49.804;9.952;2022-11-25T07:56:11;99336.28;;;0.52;97.04
69200;BME280;56313;49.804;9.952;2022-11-25T07:58:36;99332.78;;;0.53;97.22
69200;BME280;56313;49.804;9.952;2022-11-25T08:01:09;99330.56;;;0.62;96.34
69200;BME280;56313;49.804;9.952;2022-11-25T08:03:36;99322.25;;;0.73;96.20
69200;BME280;56313;49.804;9.952;2022-11-25T08:06:13;99320.91;;;0.82;96.30
69200;BME280;56313;49.804;9.952;2022-11-25T08:08:41;99323.41;;;1.00;96.14
69200;BME280;56313;49.804;9.952;2022-11-25T08:11:16;99322.16;;;0.91;95.07
69200;BME280;56313;49.804;9.952;2022-11-25T08:13:45;99327.66;;;1.01;95.01
69200;BME280;56313;49.804;9.952;2022-11-25T08:16:24;99322.72;;;1.29;95.06
69200;BME280;56313;49.804;9.952;2022-11-25T08:19:16;99329.09;;;1.37;94.78
69200;BME280;56313;49.804;9.952;2022-11-25T08:22:01;99326.28;;;1.42;93.74
69200;BME280;56313;49.804;9.952;2022-11-25T08:24:26;99319.75;;;1.51;93.68
69200;BME280;56313;49.804;9.952;2022-11-25T08:33:34;99333.63;;;1.64;93.45
69200;BME280;56313;49.804;9.952;2022-11-25T08:35:59;99332.91;;;1.77;93.01
69200;BME280;56313;49.804;9.952;2022-11-25T08:38:25;99328.22;;;1.84;93.53
69200;BME280;56313;49.804;9.952;2022-11-25T08:40:54;99337.66;;;1.99;92.95
69200;BME280;56313;49.804;9.952;2022-11-25T08:43:20;99337.22;;;2.22;91.85
69200;BME280;56313;49.804;9.952;2022-11-25T08:45:49;99343.22;;;2.08;91.97
69200;BME280;56313;49.804;9.952;2022-11-25T08:48:16;99348.38;;;2.08;92.83
69200;BME280;56313;49.804;9.952;2022-11-25T08:50:48;99348.94;;;2.13;92.94
69200;BME280;56313;49.804;9.952;2022-11-25T08:53:17;99344.78;;;1.96;92.32
69200;BME280;56313;49.804;9.952;2022-11-25T08:55:42;99361.00;;;2.12;92.72
69200;BME280;56313;49.804;9.952;2022-11-25T08:58:08;99362.69;;;2.13;92.75
69200;BME280;56313;49.804;9.952;2022-11-25T09:00:40;99368.91;;;1.95;92.24
69200;BME280;56313;49.804;9.952;2022-11-25T09:03:06;99367.78;;;2.15;91.73
69200;BME280;56313;49.804;9.952;2022-11-25T09:05:34;99365.94;;;2.46;91.00
69200;BME280;56313;49.804;9.952;2022-11-25T09:08:03;99359.66;;;2.50;90.09
69200;BME280;56313;49.804;9.952;2022-11-25T09:10:30;99352.63;;;2.67;90.25
69200;BME280;56313;49.804;9.952;2022-11-25T09:13:18;99351.72;;;2.53;89.99
69200;BME280;56313;49.804;9.952;2022-11-25T09:15:44;99350.53;;;2.45;90.27
69200;BME280;56313;49.804;9.952;2022-11-25T09:18:20;99348.56;;;2.48;90.28
69200;BME280;56313;49.804;9.952;2022-11-25T09:24:27;99345.69;;;2.68;90.05
69200;BME280;56313;49.804;9.952;2022-11-25T09:27:22;99343.94;;;2.68;89.37
69200;BME280;56313;49.804;9.952;2022-11-25T09:29:50;99338.47;;;2.87;89.70
69200;BME280;56313;49.804;9.952;2022-11-25T09:35:53;99351.63;;;2.97;88.64
69200;BME280;56313;49.804;9.952;2022-11-25T09:38:33;99350.41;;;3.17;88.49
69200;BME280;56313;49.804;9.952;2022-11-25T09:47:58;99341.09;;;3.00;89.15
69200;BME280;56313;49.804;9.952;2022-11-25T09:50:51;99348.06;;;3.00;89.21
69200;BME280;56313;49.804;9.952;2022-11-25T09:56:44;99360.47;;;2.80;89.20
69200;BME280;56313;49.804;9.952;2022-11-25T09:59:23;99361.50;;;2.77;89.71
69200;BME280;56313;49.804;9.952;2022-11-25T10:02:08;99368.19;;;2.95;89.68
69200;BME280;56313;49.804;9.952;2022-11-25T10:05:02;99363.31;;;2.90;89.76
69200;BME280;56313;49.804;9.952;2022-11-25T10:11:16;99353.28;;;3.13;90.36
69200;BME280;56313;49.804;9.952;2022-11-25T10:20:43;99357.66;;;3.25;90.59
69200;BME280;56313;49.804;9.952;2022-11-25T10:23:32;99370.41;;;3.28;90.54
69200;BME280;56313;49.804;9.952;2022-11-25T10:26:30;99365.88;;;3.32;90.37
69200;BME280;56313;49.804;9.952;2022-11-25T10:32:21;99362.94;;;3.24;91.06
69200;BME280;56313;49.804;9.952;2022-11-25T10:35:04;99365.91;;;3.45;90.23
69200;BME280;56313;49.804;9.952;2022-11-25T10:38:00;99357.09;;;3.35;91.54
69200;BME280;56313;49.804;9.952;2022-11-25T10:40:38;99343.78;;;3.54;90.75
69200;BME280;56313;49.804;9.952;2022-11-25T10:46:40;99350.88;;;3.37;90.39
69200;BME280;56313;49.804;9.952;2022-11-25T10:55:27;99355.38;;;3.48;90.93
69200;BME280;56313;49.804;9.952;2022-11-25T10:58:29;99360.84;;;3.44;90.46
69200;BME280;56313;49.804;9.952;2022-11-25T11:01:23;99360.59;;;3.34;90.20
69200;BME280;56313;49.804;9.952;2022-11-25T11:04:03;99361.97;;;3.39;91.16
69200;BME280;56313;49.804;9.952;2022-11-25T11:06:43;99367.66;;;3.45;91.38
69200;BME280;56313;49.804;9.952;2022-11-25T11:09:46;99369.97;;;3.49;92.04
69200;BME280;56313;49.804;9.952;2022-11-25T11:12:24;99374.84;;;3.54;92.01
69200;BME280;56313;49.804;9.952;2022-11-25T11:15:14;99376.09;;;3.48;91.60
69200;BME280;56313;49.804;9.952;2022-11-25T11:17:39;99368.63;;;3.57;91.61
69200;BME280;56313;49.804;9.952;2022-11-25T11:22:53;99367.75;;;3.71;91.21
69200;BME280;56313;49.804;9.952;2022-11-25T11:25:24;99369.66;;;3.82;92.66
69200;BME280;56313;49.804;9.952;2022-11-25T11:27:51;99366.41;;;3.78;91.80
69200;BME280;56313;49.804;9.952;2022-11-25T11:30:22;99376.25;;;3.73;92.27
69200;BME280;56313;49.804;9.952;2022-11-25T11:33:02;99372.44;;;3.78;91.82
69200;BME280;56313;49.804;9.952;2022-11-25T11:57:20;99380.25;;;4.17;91.90
69200;BME280;56313;49.804;9.952;2022-11-25T17:45:41;99720.19;;;4.42;96.25
69200;BME280;56313;49.804;9.952;2022-11-25T17:48:13;99732.63;;;4.22;96.29
69200;BME280;56313;49.804;9.952;2022-11-25T17:50:42;99734.84;;;4.28;96.22
69200;BME280;56313;49.804;9.952;2022-11-25T17:53:08;99741.06;;;4.26;96.76
69200;BME280;56313;49.804;9.952;2022-11-25T17:58:53;99743.66;;;4.26;97.18
69200;BME280;56313;49.804;9.952;2022-11-25T18:01:21;99750.75;;;4.37;97.12
69200;BME280;56313;49.804;9.952;2022-11-25T18:03:46;99747.63;;;4.31;97.54
69200;BME280;56313;49.804;9.952;2022-11-25T18:06:15;99747.88;;;4.41;97.28
69200;BME280;56313;49.804;9.952;2022-11-25T18:08:48;99755.22;;;4.35;96.65
69200;BME280;56313;49.804;9.952;2022-11-25T18:11:33;99754.19;;;4.23;97.20
69200;BME280;56313;49.804;9.952;2022-11-25T18:14:05;99759.31;;;4.24;97.31
69200;BME280;56313;49.804;9.952;2022-11-25T18:16:34;99763.38;;;4.14;97.64
69200;BME280;56313;49.804;9.952;2022-11-25T18:19:10;99765.41;;;4.09;97.43
69200;BME280;56313;49.804;9.952;2022-11-25T18:21:39;99776.72;;;4.08;97.57
69200;BME280;56313;49.804;9.952;2022-11-25T18:24:05;99771.50;;;4.22;97.45
69200;BME280;56313;49.804;9.952;2022-11-25T18:26:34;99785.22;;;4.24;97.20
69200;BME280;56313;49.804;9.952;2022-11-25T18:29:08;99780.59;;;4.29;97.12
69200;BME280;56313;49.804;9.952;2022-11-25T18:31:37;99784.56;;;4.35;96.68
69200;BME280;56313;49.804;9.952;2022-11-25T18:34:12;99784.84;;;4.16;97.12
69200;BME280;56313;49.804;9.952;2022-11-25T18:36:38;99786.63;;;4.15;97.00
69200;BME280;56313;49.804;9.952;2022-11-25T18:39:23;99783.91;;;4.02;97.10
69200;BME280;56313;49.804;9.952;2022-11-25T18:41:51;99790.28;;;3.82;97.66
69200;BME280;56313;49.804;9.952;2022-11-25T18:44:26;99797.44;;;4.08;97.66
69200;BME280;56313;49.804;9.952;2022-11-25T18:46:57;99803.00;;;3.87;97.51
69200;BME280;56313;49.804;9.952;2022-11-25T18:49:23;99802.47;;;4.11;97.21
69200;BME280;56313;49.804;9.952;2022-11-25T18:51:48;99810.97;;;4.13;96.96
69200;BME280;56313;49.804;9.952;2022-11-25T18:54:14;99811.13;;;3.95;97.26
69200;BME280;56313;49.804;9.952;2022-11-25T18:56:40;99822.06;;;4.00;97.62
69200;BME280;56313;49.804;9.952;2022-11-25T18:59:10;99820.16;;;4.18;97.67
69200;BME280;56313;49.804;9.952;2022-11-25T19:01:38;99824.78;;;4.28;97.22
69200;BME280;56313;49.804;9.952;2022-11-25T19:04:03;99828.13;;;4.30;96.90
69200;BME280;56313;49.804;9.952;2022-11-25T19:06:29;99841.63;;;4.21;97.29
69200;BME280;56313;49.804;9.952;2022-11-25T19:08:54;99834.88;;;4.33;97.39
69200;BME280;56313;49.804;9.952;2022-11-25T19:11:33;99843.22;;;4.38;97.47
69200;BME280;56313;49.804;9.952;2022-11-25T19:16:51;99844.88;;;4.53;97.39
69200;BME280;56313;49.804;9.952;2022-11-25T19:19:20;99850.06;;;4.39;96.93
69200;BME280;56313;49.804;9.952;2022-11-25T19:21:48;99863.22;;;4.36;96.95
69200;BME280;56313;49.804;9.952;2022-11-25T19:24:14;99858.97;;;4.35;97.38
69200;BME280;56313;49.804;9.952;2022-11-25T19:26:49;99867.38;;;4.24;97.30
69200;BME280;56313;49.804;9.952;2022-11-25T19:29:36;99873.50;;;4.23;97.54
69200;BME280;56313;49.804;9.952;2022-11-25T19:32:03;99873.50;;;4.23;97.34
69200;BME280;56313;49.804;9.952;2022-11-25T19:34:35;99874.03;;;4.13;97.28
69200;BME280;56313;49.804;9.952;2022-11-25T19:37:05;99883.09;;;4.06;97.53
69200;BME280;56313;49.804;9.952;2022-11-25T19:39:35;99884.50;;;4.12;97.69
69200;BME280;56313;49.804;9.952;2022-11-25T19:42:00;99886.63;;;4.05;98.06
69200;BME280;56313;49.804;9.952;2022-11-25T19:44:28;99897.47;;;4.12;97.70
69200;BME280;56313;49.804;9.952;2022-11-25T19:46:54;99903.88;;;4.21;97.42
69200;BME280;56313;49.804;9.952;2022-11-25T19:49:19;99901.06;;;4.09;98.15
69200;BME280;56313;49.804;9.952;2022-11-25T19:51:46;99910.34;;;4.13;97.53
69200;BME280;56313;49.804;9.952;2022-11-25T19:54:17;99907.66;;;4.15;97.40
69200;BME280;56313;49.804;9.952;2022-11-25T19:56:44;99913.09;;;4.10;97.49
69200;BME280;56313;49.804;9.952;2022-11-25T19:59:10;99919.88;;;4.13;97.17
69200;BME280;56313;49.804;9.952;2022-11-25T20:01:40;99918.56;;;4.05;97.60
69200;BME280;56313;49.804;9.952;2022-11-25T20:04:14;99925.50;;;4.05;97.76
69200;BME280;56313;49.804;9.952;2022-11-25T20:06:41;99924.38;;;3.95;97.49
69200;BME280;56313;49.804;9.952;2022-11-25T20:09:10;99929.59;;;3.78;97.83
69200;BME280;56313;49.804;9.952;2022-11-25T20:11:36;99940.41;;;3.71;98.17
69200;BME280;56313;49.804;9.952;2022-11-25T20:14:02;99937.13;;;3.67;98.32
69200;BME280;56313;49.804;9.952;2022-11-25T20:16:33;99939.56;;;3.70;98.23
69200;BME280;56313;49.804;9.952;2022-11-25T20:19:00;99947.94;;;3.59;97.97
69200;BME280;56313;49.804;9.952;2022-11-25T20:21:30;99957.56;;;3.88;98.37
69200;BME280;56313;49.804;9.952;2022-11-25T20:23:58;99970.50;;;4.04;98.10
69200;BME280;56313;49.804;9.952;2022-11-25T20:26:32;99965.06;;;4.09;97.66
69200;BME280;56313;49.804;9.952;2022-11-25T20:28:58;99970.06;;;4.12;97.17
69200;BME280;56313;49.804;9.952;2022-11-25T20:31:24;99968.97;;;4.16;97.21
69200;BME280;56313;49.804;9.952;2022-11-25T20:33:50;99973.53;;;4.27;97.19
69200;BME280;56313;49.804;9.952;2022-11-25T20:36:18;99986.34;;;4.30;96.98
69200;BME280;56313;49.804;9.952;2022-11-25T20:38:50;99982.44;;;4.37;96.88
69200;BME280;56313;49.804;9.952;2022-11-25T20:41:17;99988.75;;;4.33;96.44
69200;BME280;56313;49.804;9.952;2022-11-25T20:43:46;99994.13;;;4.30;96.69
69200;BME280;56313;49.804;9.952;2022-11-25T20:46:17;99994.19;;;4.28;96.89
69200;BME280;56313;49.804;9.952;2022-11-25T20:48:43;99996.66;;;4.15;96.93
69200;BME280;56313;49.804;9.952;2022-11-25T20:51:17;99999.66;;;4.24;97.21
69200;BME280;56313;49.804;9.952;2022-11-25T20:53:49;100002.97;;;4.11;97.30
69200;BME280;56313;49.804;9.952;2022-11-25T20:56:18;99996.16;;;4.09;97.47
69200;BME280;56313;49.804;9.952;2022-11-25T20:58:44;99997.09;;;4.08;97.77
69200;BME280;56313;49.804;9.952;2022-11-25T21:01:11;100000.13;;;4.00;97.70
69200;BME280;56313;49.804;9.952;2022-11-25T21:03:39;99999.31;;;3.99;97.96
69200;BME280;56313;49.804;9.952;2022-11-25T21:06:24;100010.06;;;4.08;98.43
69200;BME280;56313;49.804;9.952;2022-11-25T21:08:52;100013.81;;;4.18;97.67
69200;BME280;56313;49.804;9.952;2022-11-25T21:11:19;100019.06;;;4.16;98.14
69200;BME280;56313;49.804;9.952;2022-11-25T21:13:46;100020.56;;;4.21;97.94
69200;BME280;56313;49.804;9.952;2022-11-25T21:16:12;100030.84;;;4.22;97.90
69200;BME280;56313;49.804;9.952;2022-11-25T21:18:38;100037.28;;;4.31;98.19
69200;BME280;56313;49.804;9.952;2022-11-25T21:21:11;100038.13;;;4.31;97.95
69200;BME280;56313;49.804;9.952;2022-11-25T21:23:38;100035.09;;;4.39;97.75
69200;BME280;56313;49.804;9.952;2022-11-25T21:26:24;100042.50;;;4.46;97.56
69200;BME280;56313;49.804;9.952;2022-11-25T21:28:52;100041.59;;;4.47;97.60
69200;BME280;56313;49.804;9.952;2022-11-25T21:31:23;100045.06;;;4.31;97.61
69200;BME280;56313;49.804;9.952;2022-11-25T21:33:50;100050.50;;;4.26;97.93
69200;BME280;56313;49.804;9.952;2022-11-25T21:36:20;100048.28;;;4.20;98.06
69200;BME280;56313;49.804;9.952;2022-11-25T21:38:49;100050.53;;;4.10;98.33
69200;BME280;56313;49.804;9.952;2022-11-25T21:41:16;100060.75;;;4.13;98.57
69200;BME280;56313;49.804;9.952;2022-11-25T21:43:44;100064.50;;;4.08;98.52
69200;BME280;56313;49.804;9.952;2022-11-25T21:46:13;100073.88;;;4.10;98.41
69200;BME280;56313;49.804;9.952;2022-11-25T21:48:41;100064.81;;;4.17;98.80
69200;BME280;56313;49.804;9.952;2022-11-25T21:51:11;100064.81;;;4.17;98.53
69200;BME280;56313;49.804;9.952;2022-11-25T21:53:37;100069.19;;;4.17;98.62
69200;BME280;56313;49.804;9.952;2022-11-25T21:56:03;100077.78;;;4.17;98.66
69200;BME280;56313;49.804;9.952;2022-11-25T21:58:32;100076.97;;;4.17;98.77
69200;BME280;56313;49.804;9.952;2022-11-25T22:01:29;100076.22;;;4.15;98.65
69200;BME280;56313;49.804;9.952;2022-11-25T22:04:14;100081.31;;;4.16;98.95
